Time;durP1;ratioP1;P1;durP2;ratioP2;P2;SDS_P1;SDS_P2;PMS_P1;PMS_P2;Temp;Humidity;BMP_temperature;BMP_pressure;BME280_temperature;BME280_humidity;BME280_pressure;Samples;Min_cycle;Max_cycle;Signal;HPM_P1;HPM_P2
2022/05/06 00:01:43;;;;;;;;;;;;;;;18.93;100.00;98273.63;5080232;27;19925;-61
2022/05/06 00:04:10;;;;;;;;;;;;;;;18.99;100.00;98265.09;5077081;28;19942;-62
2022/05/06 00:06:36;;;;;;;;;;;;;;;18.83;100.00;98263.84;5076994;28;19925;-62
2022/05/06 00:09:04;;;;;;;;;;;;;;;18.63;100.00;98256.25;5079706;28;19995;-63
2022/05/06 00:11:31;;;;;;;;;;;;;;;18.69;100.00;98261.19;5080280;28;19925;-61
2022/05/06 00:13:57;;;;;;;;;;;;;;;18.34;100.00;98259.31;5119415;27;20034;-61
2022/05/06 00:16:24;;;;;;;;;;;;;;;18.09;100.00;98254.44;5076848;28;20341;-61
2022/05/06 00:18:52;;;;;;;;;;;;;;;18.04;100.00;98260.75;5078119;28;19964;-60
2022/05/06 00:21:18;;;;;;;;;;;;;;;17.87;100.00;98263.28;5080091;28;19929;-60
2022/05/06 00:23:44;;;;;;;;;;;;;;;17.71;100.00;98264.66;5079877;28;19925;-61
2022/05/06 00:26:12;;;;;;;;;;;;;;;17.68;100.00;98257.16;5076598;28;19925;-60
2022/05/06 00:28:39;;;;;;;;;;;;;;;17.78;100.00;98260.47;5076819;28;19955;-62
2022/05/06 00:31:06;;;;;;;;;;;;;;;17.64;100.00;98256.97;5079765;28;19925;-61
2022/05/06 00:33:33;;;;;;;;;;;;;;;17.36;100.00;98249.13;5079863;28;19929;-60
2022/05/06 00:36:00;;;;;;;;;;;;;;;17.44;100.00;98253.84;5077281;28;19967;-61
2022/05/06 00:38:27;;;;;;;;;;;;;;;17.77;100.00;98258.06;5076637;28;20000;-62
2022/05/06 00:40:54;;;;;;;;;;;;;;;17.77;100.00;98260.78;5077855;28;19941;-61
2022/05/06 00:43:23;;;;;;;;;;;;;;;17.78;100.00;98262.38;5121157;27;19935;-61
2022/05/06 00:45:52;;;;;;;;;;;;;;;17.80;100.00;98262.88;5078879;28;19955;-61
2022/05/06 00:48:18;;;;;;;;;;;;;;;17.58;100.00;98255.47;5076373;28;19950;-62
2022/05/06 00:50:45;;;;;;;;;;;;;;;17.63;100.00;98252.69;5076697;28;19988;-61
2022/05/06 00:53:12;;;;;;;;;;;;;;;17.40;100.00;98253.63;5079694;28;19924;-61
2022/05/06 00:55:38;;;;;;;;;;;;;;;17.45;100.00;98258.94;5079692;28;19925;-62
2022/05/06 00:58:05;;;;;;;;;;;;;;;17.47;100.00;98258.63;5076737;28;19989;-62
2022/05/06 01:00:33;;;;;;;;;;;;;;;17.52;100.00;98256.63;5076239;28;19931;-61
2022/05/06 01:02:59;;;;;;;;;;;;;;;17.64;100.00;98245.38;5078337;27;19929;-61
2022/05/06 01:05:26;;;;;;;;;;;;;;;16.93;100.00;98260.13;5061727;28;19924;-61
2022/05/06 01:07:52;;;;;;;;;;;;;;;16.79;100.00;98253.91;5078121;28;19925;-61
2022/05/06 01:10:19;;;;;;;;;;;;;;;17.32;100.00;98258.91;5075913;28;19963;-62
2022/05/06 01:15:50;;;;;;;;;;;;;;;17.60;100.00;98253.28;5078421;28;19920;-62
2022/05/06 01:18:17;;;;;;;;;;;;;;;17.65;100.00;98260.47;5075808;28;19936;-62
2022/05/06 01:20:45;;;;;;;;;;;;;;;17.60;100.00;98249.78;5075954;28;19928;-61
2022/05/06 01:23:13;;;;;;;;;;;;;;;17.38;100.00;98255.84;5079218;28;19996;-61
2022/05/06 01:25:39;;;;;;;;;;;;;;;17.31;100.00;98260.81;5079309;28;19971;-61
2022/05/06 01:28:06;;;;;;;;;;;;;;;17.14;100.00;98260.59;5075944;28;19925;-60
2022/05/06 01:30:34;;;;;;;;;;;;;;;17.21;100.00;98259.09;5075887;28;19996;-60
2022/05/06 01:33:01;;;;;;;;;;;;;;;17.16;100.00;98259.19;5078141;28;19929;-62
2022/05/06 01:35:29;;;;;;;;;;;;;;;17.34;100.00;98265.63;5079128;28;19936;-61
2022/05/06 01:37:57;;;;;;;;;;;;;;;17.66;100.00;98264.78;5077383;28;19931;-62
2022/05/06 01:40:25;;;;;;;;;;;;;;;17.57;100.00;98259.28;5057750;28;19980;-62
2022/05/06 01:42:54;;;;;;;;;;;;;;;17.50;100.00;98258.03;5118188;27;19955;-62
2022/05/06 01:45:22;;;;;;;;;;;;;;;17.37;100.00;98254.22;5078835;28;19933;-61
2022/05/06 01:47:51;;;;;;;;;;;;;;;17.73;100.00;98265.19;5078564;28;19929;-62
2022/05/06 01:50:20;;;;;;;;;;;;;;;17.19;100.00;98261.31;5079097;28;19996;-61
2022/05/06 01:52:49;;;;;;;;;;;;;;;17.53;100.00;98263.66;5079719;28;19931;-62
2022/05/06 01:55:15;;;;;;;;;;;;;;;17.23;100.00;98261.50;5082538;28;20616;-61
2022/05/06 01:57:43;;;;;;;;;;;;;;;17.24;100.00;98274.69;5082453;28;20567;-61
2022/05/06 02:00:12;;;;;;;;;;;;;;;17.25;100.00;98267.41;5071010;28;19931;-61
2022/05/06 02:02:38;;;;;;;;;;;;;;;17.31;100.00;98263.50;5078673;27;19925;-62
2022/05/06 02:05:19;;;;;;;;;;;;;;;17.07;100.00;98260.97;5081713;28;19931;-61
2022/05/06 02:07:46;;;;;;;;;;;;;;;17.27;100.00;98266.00;5081790;28;20004;-61
2022/05/06 02:10:13;;;;;;;;;;;;;;;17.25;100.00;98254.72;5078766;28;19936;-60
2022/05/06 02:12:39;;;;;;;;;;;;;;;17.00;100.00;98248.94;5118258;27;20267;-62
2022/05/06 02:15:08;;;;;;;;;;;;;;;17.07;100.00;98265.56;5083267;27;19931;-61
2022/05/06 02:17:34;;;;;;;;;;;;;;;17.51;100.00;98255.06;5082102;28;20019;-60
2022/05/06 02:20:01;;;;;;;;;;;;;;;17.65;100.00;98265.88;5079574;28;19929;-61
2022/05/06 02:22:27;;;;;;;;;;;;;;;17.67;100.00;98264.47;5078589;28;19961;-62
2022/05/06 02:24:55;;;;;;;;;;;;;;;17.88;100.00;98256.78;5080286;28;19932;-62
2022/05/06 02:27:21;;;;;;;;;;;;;;;17.86;100.00;98260.88;5082090;28;19928;-61
2022/05/06 02:35:09;;;;;;;;;;;;;;;17.50;100.00;98268.84;5082657;28;19936;-60
2022/05/06 02:37:36;;;;;;;;;;;;;;;17.73;100.00;98265.97;5060907;28;19952;-60
2022/05/06 02:40:03;;;;;;;;;;;;;;;17.88;100.00;98259.47;5081241;28;19984;-62
2022/05/06 02:42:29;;;;;;;;;;;;;;;17.98;100.00;98269.28;5107530;27;19923;-61
2022/05/06 02:44:55;;;;;;;;;;;;;;;18.04;100.00;98274.25;5089088;27;19993;-61
2022/05/06 02:47:22;;;;;;;;;;;;;;;18.07;100.00;98270.16;5081900;28;19924;-61
2022/05/06 02:49:49;;;;;;;;;;;;;;;18.07;100.00;98275.56;5081150;28;19956;-61
2022/05/06 02:52:16;;;;;;;;;;;;;;;18.14;100.00;98267.84;5078293;28;19996;-61
2022/05/06 02:54:42;;;;;;;;;;;;;;;18.10;100.00;98259.56;5078038;28;19931;-61
2022/05/06 02:57:08;;;;;;;;;;;;;;;18.03;100.00;98267.28;5069754;28;19931;-62
2022/05/06 02:59:34;;;;;;;;;;;;;;;18.05;100.00;98273.16;5078007;28;19984;-61
2022/05/06 03:02:01;;;;;;;;;;;;;;;18.10;100.00;98264.16;5080037;27;20609;-61
2022/05/06 03:04:27;;;;;;;;;;;;;;;18.12;100.00;98264.66;5080985;28;19925;-61
2022/05/06 03:06:55;;;;;;;;;;;;;;;18.13;100.00;98275.16;5079974;28;19963;-61
2022/05/06 03:09:21;;;;;;;;;;;;;;;18.17;100.00;98278.03;5077738;28;19932;-61
2022/05/06 03:11:50;;;;;;;;;;;;;;;18.18;100.00;98276.94;5080326;27;21371;-61
2022/05/06 03:14:16;;;;;;;;;;;;;;;18.11;100.00;98269.25;5115513;27;19925;-62
2022/05/06 03:16:43;;;;;;;;;;;;;;;18.09;100.00;98273.34;5077713;28;19925;-61
2022/05/06 03:19:09;;;;;;;;;;;;;;;18.08;100.00;98269.84;5069345;28;19925;-61
2022/05/06 03:21:36;;;;;;;;;;;;;;;18.00;100.00;98277.88;5077503;28;19920;-61
2022/05/06 03:24:03;;;;;;;;;;;;;;;17.98;100.00;98270.06;5080173;28;19984;-61
2022/05/06 03:26:30;;;;;;;;;;;;;;;17.96;100.00;98272.28;5081099;28;19931;-61
2022/05/06 03:28:57;;;;;;;;;;;;;;;17.86;100.00;98266.28;5079358;28;19966;-61
2022/05/06 03:31:23;;;;;;;;;;;;;;;17.86;100.00;98275.16;5077314;28;19948;-61
2022/05/06 03:33:50;;;;;;;;;;;;;;;17.56;100.00;98268.47;5078370;28;20023;-62
2022/05/06 03:36:16;;;;;;;;;;;;;;;17.69;100.00;98272.28;5080807;28;19932;-61
2022/05/06 03:38:42;;;;;;;;;;;;;;;17.51;100.00;98273.97;5080867;28;19980;-61
2022/05/06 03:41:10;;;;;;;;;;;;;;;17.47;100.00;98270.25;5069089;28;19927;-62
2022/05/06 03:43:36;;;;;;;;;;;;;;;17.44;100.00;98276.25;5118478;27;19931;-61
2022/05/06 03:46:03;;;;;;;;;;;;;;;17.66;100.00;98272.88;5077894;28;19941;-61
2022/05/06 03:48:29;;;;;;;;;;;;;;;17.67;100.00;98279.91;5077308;28;19925;-61
2022/05/06 03:53:40;;;;;;;;;;;;;;;17.83;100.00;98286.59;5080534;28;19973;-61
2022/05/06 03:56:07;;;;;;;;;;;;;;;17.86;100.00;98285.22;5059591;28;19929;-61
2022/05/06 03:58:34;;;;;;;;;;;;;;;17.87;100.00;98282.19;5077312;28;19932;-61
2022/05/06 04:01:01;;;;;;;;;;;;;;;17.82;100.00;98287.72;5079446;28;19935;-60
2022/05/06 04:03:27;;;;;;;;;;;;;;;17.81;100.00;98296.91;5080450;27;20015;-61
2022/05/06 04:05:53;;;;;;;;;;;;;;;17.83;100.00;98291.19;5079114;28;19925;-62
2022/05/06 04:08:19;;;;;;;;;;;;;;;17.78;100.00;98297.50;5076799;28;19931;-61
2022/05/06 04:10:46;;;;;;;;;;;;;;;17.82;100.00;98297.72;5076704;28;19925;-61
2022/05/06 04:13:12;;;;;;;;;;;;;;;17.83;100.00;98305.50;5122146;27;19924;-61
2022/05/06 04:15:40;;;;;;;;;;;;;;;17.85;100.00;98302.50;5080185;28;20673;-60
2022/05/06 04:18:06;;;;;;;;;;;;;;;17.86;100.00;98310.28;5076998;28;19924;-61
2022/05/06 04:23:32;;;;;;;;;;;;;;;17.86;100.00;98320.34;5069703;28;19925;-61
2022/05/06 04:25:59;;;;;;;;;;;;;;;17.83;100.00;98318.19;5078856;28;19925;-61
2022/05/06 04:28:26;;;;;;;;;;;;;;;17.90;100.00;98316.72;5080249;28;19932;-61
2022/05/06 04:30:54;;;;;;;;;;;;;;;17.83;100.00;98329.81;5078931;28;19920;-61
2022/05/06 04:33:20;;;;;;;;;;;;;;;17.80;100.00;98330.41;5076481;28;19996;-61
2022/05/06 04:35:47;;;;;;;;;;;;;;;17.83;100.00;98329.81;5076983;28;19924;-61
2022/05/06 04:38:13;;;;;;;;;;;;;;;17.87;100.00;98330.81;5079959;28;20007;-61
2022/05/06 04:40:40;;;;;;;;;;;;;;;17.84;100.00;98342.22;5079805;28;19955;-60
2022/05/06 04:43:07;;;;;;;;;;;;;;;17.76;100.00;98332.13;5113535;27;19950;-62
2022/05/06 04:45:36;;;;;;;;;;;;;;;17.61;100.00;98340.47;5062122;28;20011;-62
2022/05/06 04:48:05;;;;;;;;;;;;;;;17.39;100.00;98346.53;5077065;28;19924;-61
2022/05/06 04:50:31;;;;;;;;;;;;;;;17.45;100.00;98341.84;5076416;28;19929;-62
2022/05/06 04:52:58;;;;;;;;;;;;;;;17.44;100.00;98351.03;5078289;28;19924;-61
2022/05/06 04:55:24;;;;;;;;;;;;;;;17.32;100.00;98343.41;5079561;28;19969;-62
2022/05/06 04:57:50;;;;;;;;;;;;;;;17.28;100.00;98350.50;5078589;28;19984;-61
2022/05/06 05:00:17;;;;;;;;;;;;;;;17.41;100.00;98357.03;5076122;28;19931;-62
2022/05/06 05:02:44;;;;;;;;;;;;;;;17.46;100.00;98348.84;5075863;28;19992;-61
2022/05/06 05:05:12;;;;;;;;;;;;;;;17.38;100.00;98363.03;5079595;28;19928;-61
2022/05/06 05:07:39;;;;;;;;;;;;;;;17.39;100.00;98356.53;5079353;28;19925;-62
2022/05/06 05:10:06;;;;;;;;;;;;;;;17.46;100.00;98355.03;5076025;28;19946;-60
2022/05/06 05:12:32;;;;;;;;;;;;;;;17.39;100.00;98351.13;5109879;27;19927;-62
2022/05/06 05:14:59;;;;;;;;;;;;;;;17.48;100.00;98360.16;5084939;27;19931;-60
2022/05/06 05:17:25;;;;;;;;;;;;;;;17.55;100.00;98366.78;5079164;28;19963;-61
2022/05/06 05:19:51;;;;;;;;;;;;;;;17.61;100.00;98367.50;5077915;28;19924;-61
2022/05/06 05:22:19;;;;;;;;;;;;;;;17.52;100.00;98363.84;5074661;28;20016;-60
2022/05/06 05:24:45;;;;;;;;;;;;;;;17.40;100.00;98364.31;5075732;28;19931;-61
2022/05/06 05:27:12;;;;;;;;;;;;;;;17.32;100.00;98354.22;5079124;28;19963;-61
2022/05/06 05:29:39;;;;;;;;;;;;;;;17.33;100.00;98366.59;5079300;28;19992;-62
2022/05/06 05:32:06;;;;;;;;;;;;;;;17.27;100.00;98373.16;5076102;28;19992;-62
2022/05/06 05:34:32;;;;;;;;;;;;;;;17.16;100.00;98369.84;5075648;28;19925;-61
2022/05/06 05:36:58;;;;;;;;;;;;;;;17.07;100.00;98366.22;5077702;28;19993;-63
2022/05/06 05:39:26;;;;;;;;;;;;;;;17.03;100.00;98367.09;5078937;28;19925;-61
2022/05/06 05:41:52;;;;;;;;;;;;;;;16.70;100.00;98366.22;5082625;27;19948;-61
2022/05/06 05:49:46;;;;;;;;;;;;;;;16.86;100.00;98367.63;5078713;28;20341;-61
2022/05/06 05:52:12;;;;;;;;;;;;;;;16.71;100.00;98365.16;5075566;28;19939;-61
2022/05/06 05:54:40;;;;;;;;;;;;;;;16.46;100.00;98365.47;5075462;28;19997;-60
2022/05/06 05:57:07;;;;;;;;;;;;;;;16.79;100.00;98367.19;5078961;28;19924;-60
2022/05/06 05:59:34;;;;;;;;;;;;;;;16.89;100.00;98366.22;5079107;28;20012;-61
2022/05/06 06:02:01;;;;;;;;;;;;;;;16.85;100.00;98371.41;5076224;27;19946;-60
2022/05/06 06:04:27;;;;;;;;;;;;;;;16.89;100.00;98377.81;5075621;28;19921;-61
2022/05/06 06:06:54;;;;;;;;;;;;;;;16.66;100.00;98376.78;5076890;28;20023;-61
2022/05/06 06:09:22;;;;;;;;;;;;;;;16.55;100.00;98377.22;5079027;28;19925;-61
2022/05/06 06:11:49;;;;;;;;;;;;;;;16.43;100.00;98377.59;5080338;27;19920;-61
2022/05/06 06:14:16;;;;;;;;;;;;;;;16.87;100.00;98382.69;5113538;27;19992;-63
2022/05/06 06:16:43;;;;;;;;;;;;;;;16.91;100.00;98375.63;5075373;28;19963;-61
2022/05/06 06:19:09;;;;;;;;;;;;;;;16.66;100.00;98382.19;5049673;28;20392;-61
2022/05/06 06:21:35;;;;;;;;;;;;;;;16.44;100.00;98376.50;5075512;28;19927;-61
2022/05/06 06:24:02;;;;;;;;;;;;;;;16.29;100.00;98384.78;5077365;28;19935;-60
2022/05/06 06:26:28;;;;;;;;;;;;;;;16.36;100.00;98384.44;5078807;28;20388;-60
2022/05/06 06:28:56;;;;;;;;;;;;;;;16.21;100.00;98388.13;5077107;28;19928;-60
2022/05/06 06:31:22;;;;;;;;;;;;;;;16.14;100.00;98387.69;5075061;28;19964;-61
2022/05/06 06:33:49;;;;;;;;;;;;;;;16.00;100.00;98379.47;5076117;28;20010;-61
2022/05/06 06:36:15;;;;;;;;;;;;;;;16.25;100.00;98385.69;5081985;28;19945;-61
2022/05/06 06:38:42;;;;;;;;;;;;;;;16.25;100.00;98377.59;5082092;28;19924;-61
2022/05/06 06:41:09;;;;;;;;;;;;;;;16.68;100.00;98376.53;5078654;28;19921;-61
2022/05/06 06:43:35;;;;;;;;;;;;;;;16.70;100.00;98385.09;5120012;27;19949;-61
2022/05/06 06:46:05;;;;;;;;;;;;;;;16.55;100.00;98380.75;5079358;28;19960;-61
2022/05/06 06:48:31;;;;;;;;;;;;;;;16.06;100.00;98375.63;5078555;28;19967;-60
2022/05/06 06:50:58;;;;;;;;;;;;;;;16.09;100.00;98372.34;5080439;28;19988;-60
2022/05/06 06:53:24;;;;;;;;;;;;;;;16.09;100.00;98374.28;5081906;28;19928;-61
2022/05/06 06:55:51;;;;;;;;;;;;;;;16.30;100.00;98375.63;5080698;28;19999;-62
2022/05/06 06:58:17;;;;;;;;;;;;;;;16.60;100.00;98375.25;5078320;28;19960;-61
2022/05/06 07:00:43;;;;;;;;;;;;;;;16.33;100.00;98387.72;5078143;28;19925;-61
2022/05/06 07:03:11;;;;;;;;;;;;;;;16.23;100.00;98387.84;5069953;28;20388;-60
2022/05/06 07:11:52;;;;;;;;;;;;;;;16.12;100.00;98379.88;5078358;28;19993;-61
2022/05/06 07:13:52;;;;;;;;;;;;;;;16.03;100.00;98384.28;5122508;27;19936;-60
2022/05/06 07:16:18;;;;;;;;;;;;;;;16.33;100.00;98379.63;5077782;28;19925;-60
2022/05/06 07:18:46;;;;;;;;;;;;;;;16.42;99.60;98378.72;5077992;28;19960;-60
2022/05/06 07:21:12;;;;;;;;;;;;;;;16.35;98.87;98375.56;5080930;28;19942;-61
2022/05/06 07:23:39;;;;;;;;;;;;;;;16.36;98.24;98377.16;5081145;28;20001;-61
2022/05/06 07:26:05;;;;;;;;;;;;;;;16.60;100.00;98374.47;5077995;28;19929;-61
2022/05/06 07:28:32;;;;;;;;;;;;;;;16.55;98.31;98374.53;5077598;28;19980;-60
2022/05/06 07:30:58;;;;;;;;;;;;;;;16.40;95.75;98380.09;5079561;28;19924;-61
2022/05/06 07:33:24;;;;;;;;;;;;;;;16.26;97.93;98379.19;5080940;28;19928;-61
2022/05/06 07:35:52;;;;;;;;;;;;;;;15.99;96.82;98380.56;5079780;28;19975;-60
2022/05/06 07:38:18;;;;;;;;;;;;;;;15.94;97.97;98387.88;5059571;28;19964;-61
2022/05/06 07:40:44;;;;;;;;;;;;;;;16.04;99.16;98382.41;5077569;28;19976;-60
2022/05/06 07:43:11;;;;;;;;;;;;;;;16.22;97.72;98378.94;5123280;27;19925;-61
2022/05/06 07:45:38;;;;;;;;;;;;;;;16.12;96.75;98385.25;5079961;28;19987;-61
2022/05/06 07:48:07;;;;;;;;;;;;;;;16.08;96.61;98389.63;5077675;28;19933;-62
2022/05/06 07:50:34;;;;;;;;;;;;;;;16.17;97.86;98384.41;5076177;28;19925;-60
2022/05/06 07:53:01;;;;;;;;;;;;;;;16.41;95.09;98390.56;5073240;28;19931;-60
2022/05/06 07:55:28;;;;;;;;;;;;;;;16.54;96.58;98391.75;5080547;28;19963;-60
2022/05/06 07:57:54;;;;;;;;;;;;;;;16.60;94.44;98391.44;5079002;28;19928;-61
2022/05/06 08:00:24;;;;;;;;;;;;;;;16.57;95.23;98386.63;5077259;28;19989;-61
2022/05/06 08:05:34;;;;;;;;;;;;;;;16.32;96.16;98388.81;5080349;28;19927;-61
2022/05/06 08:08:01;;;;;;;;;;;;;;;16.37;97.50;98399.53;5078116;28;19991;-60
2022/05/06 08:10:28;;;;;;;;;;;;;;;16.69;97.67;98396.97;5076959;28;19925;-61
2022/05/06 08:12:54;;;;;;;;;;;;;;;16.65;96.90;98406.72;5120451;27;20254;-62
2022/05/06 08:15:20;;;;;;;;;;;;;;;16.64;96.59;98397.06;5080202;28;19932;-62
2022/05/06 08:17:47;;;;;;;;;;;;;;;16.67;95.55;98393.78;5079841;28;19925;-61
2022/05/06 08:20:13;;;;;;;;;;;;;;;16.71;96.41;98398.28;5076670;28;19984;-61
2022/05/06 08:22:39;;;;;;;;;;;;;;;16.53;98.01;98387.44;5076838;28;19992;-63
2022/05/06 08:25:08;;;;;;;;;;;;;;;16.50;98.89;98393.44;5079817;28;19995;-61
2022/05/06 08:27:36;;;;;;;;;;;;;;;16.52;100.00;98399.34;5080140;28;19992;-61
2022/05/06 08:30:03;;;;;;;;;;;;;;;16.97;98.54;98396.03;5077589;28;19955;-61
2022/05/06 08:32:29;;;;;;;;;;;;;;;16.83;96.94;98397.88;5076493;28;19992;-62
2022/05/06 08:34:55;;;;;;;;;;;;;;;16.82;98.88;98404.34;5078121;28;19984;-60
2022/05/06 08:37:22;;;;;;;;;;;;;;;16.99;99.04;98398.47;5079966;28;20394;-61
2022/05/06 08:39:48;;;;;;;;;;;;;;;16.93;98.70;98394.25;5078963;28;19924;-60
2022/05/06 08:42:16;;;;;;;;;;;;;;;16.97;99.81;98401.44;5097429;27;19986;-60
2022/05/06 08:52:58;;;;;;;;;;;;;;;17.05;100.00;98398.06;5078303;28;19984;-60
2022/05/06 08:55:25;;;;;;;;;;;;;;;17.24;99.92;98398.88;5079928;28;19939;-59
2022/05/06 08:57:53;;;;;;;;;;;;;;;17.19;100.00;98403.53;5078728;28;19991;-60
2022/05/06 09:00:23;;;;;;;;;;;;;;;17.27;100.00;98406.38;5075982;28;20012;-60
2022/05/06 09:02:50;;;;;;;;;;;;;;;17.38;100.00;98401.63;5076582;27;19925;-60
2022/05/06 09:05:17;;;;;;;;;;;;;;;17.44;100.00;98405.03;5079271;28;19931;-60
2022/05/06 09:07:54;;;;;;;;;;;;;;;17.73;98.56;98402.97;5079436;28;19960;-61
2022/05/06 09:10:20;;;;;;;;;;;;;;;17.53;100.00;98403.25;5069063;28;20023;-60
2022/05/06 09:12:46;;;;;;;;;;;;;;;17.49;100.00;98404.94;5118670;27;19923;-61
2022/05/06 09:17:59;;;;;;;;;;;;;;;17.41;100.00;98417.25;5077094;28;19924;-61
2022/05/06 09:20:27;;;;;;;;;;;;;;;17.47;100.00;98399.03;5075714;28;19960;-60
2022/05/06 09:22:53;;;;;;;;;;;;;;;17.36;100.00;98392.22;5076945;28;19959;-61
2022/05/06 09:25:35;;;;;;;;;;;;;;;17.22;100.00;98408.34;5079121;28;19951;-61
2022/05/06 09:28:01;;;;;;;;;;;;;;;17.20;100.00;98403.28;5076589;28;19987;-60
2022/05/06 09:30:29;;;;;;;;;;;;;;;17.16;100.00;98407.63;5075598;28;19984;-61
2022/05/06 09:32:55;;;;;;;;;;;;;;;17.32;100.00;98402.81;5077221;28;19993;-61
2022/05/06 09:35:26;;;;;;;;;;;;;;;17.36;100.00;98411.13;5079134;28;19940;-62
2022/05/06 09:37:52;;;;;;;;;;;;;;;17.47;100.00;98399.03;5077823;28;20616;-61
2022/05/06 09:40:20;;;;;;;;;;;;;;;17.63;100.00;98408.53;5075436;28;19960;-61
2022/05/06 09:42:57;;;;;;;;;;;;;;;17.76;100.00;98408.53;5118293;27;19930;-62
2022/05/06 09:45:30;;;;;;;;;;;;;;;17.83;100.00;98408.16;5078929;28;19931;-61
2022/05/06 09:47:57;;;;;;;;;;;;;;;17.77;100.00;98412.06;5077377;28;19974;-61
2022/05/06 09:50:31;;;;;;;;;;;;;;;18.01;100.00;98414.63;5075560;28;20011;-60
2022/05/06 09:52:59;;;;;;;;;;;;;;;17.88;100.00;98418.91;5077303;28;20712;-61
2022/05/06 09:55:26;;;;;;;;;;;;;;;17.80;100.00;98414.97;5078974;28;19950;-60
2022/05/06 09:57:53;;;;;;;;;;;;;;;17.74;100.00;98412.66;5077830;28;19980;-60
2022/05/06 10:00:19;;;;;;;;;;;;;;;17.66;100.00;98421.44;5058058;28;19931;-61
2022/05/06 10:02:47;;;;;;;;;;;;;;;17.71;100.00;98418.66;5075390;28;19935;-61
2022/05/06 10:05:13;;;;;;;;;;;;;;;17.50;100.00;98410.06;5078391;28;19929;-62
2022/05/06 10:07:41;;;;;;;;;;;;;;;17.66;100.00;98416.84;5078456;28;19987;-63
2022/05/06 10:10:12;;;;;;;;;;;;;;;17.68;100.00;98408.44;5077549;28;20004;-61
2022/05/06 10:12:39;;;;;;;;;;;;;;;17.53;100.00;98417.56;5117373;27;19923;-61
2022/05/06 10:15:08;;;;;;;;;;;;;;;17.52;100.00;98428.66;5084544;27;19928;-59
2022/05/06 10:17:49;;;;;;;;;;;;;;;17.51;100.00;98425.19;5082354;28;19992;-62
2022/05/06 10:20:34;;;;;;;;;;;;;;;17.65;100.00;98417.13;5071248;28;19929;-61
2022/05/06 10:23:01;;;;;;;;;;;;;;;17.78;100.00;98416.38;5080995;28;19925;-61
2022/05/06 10:25:46;;;;;;;;;;;;;;;17.71;100.00;98408.66;5081732;28;19983;-62
2022/05/06 10:34:19;;;;;;;;;;;;;;;17.73;100.00;98405.66;5071223;28;19953;-62
2022/05/06 10:36:46;;;;;;;;;;;;;;;17.80;100.00;98414.16;5078589;28;20011;-61
2022/05/06 10:39:18;;;;;;;;;;;;;;;17.92;100.00;98409.06;5081697;28;19925;-61
2022/05/06 10:41:58;;;;;;;;;;;;;;;17.94;100.00;98411.50;5081461;28;19996;-60
2022/05/06 10:44:35;;;;;;;;;;;;;;;17.86;100.00;98412.97;5072155;28;20071;-61
2022/05/06 10:47:01;;;;;;;;;;;;;;;17.81;100.00;98413.06;5080724;28;20476;-61
2022/05/06 10:49:50;;;;;;;;;;;;;;;17.82;100.00;98406.59;5081542;28;19996;-61
2022/05/06 10:52:35;;;;;;;;;;;;;;;17.87;100.00;98402.97;5070584;28;19996;-61
2022/05/06 10:55:04;;;;;;;;;;;;;;;18.06;100.00;98406.41;5080175;28;19932;-62
2022/05/06 10:57:31;;;;;;;;;;;;;;;18.12;100.00;98403.31;5081262;28;19925;-62
2022/05/06 10:59:58;;;;;;;;;;;;;;;18.20;100.00;98402.59;5079352;28;19927;-64
2022/05/06 11:02:25;;;;;;;;;;;;;;;18.13;100.00;98407.63;5077494;27;19980;-62
2022/05/06 11:04:52;;;;;;;;;;;;;;;18.19;100.00;98402.91;5078824;28;19942;-62
2022/05/06 11:07:19;;;;;;;;;;;;;;;18.18;100.00;98398.59;5081271;28;19988;-62
2022/05/06 11:09:45;;;;;;;;;;;;;;;18.13;100.00;98398.72;5080982;28;19925;-61
2022/05/06 11:12:28;;;;;;;;;;;;;;;18.22;100.00;98405.03;5096446;27;19923;-60
2022/05/06 11:14:54;;;;;;;;;;;;;;;18.11;100.00;98398.19;5090064;27;20011;-62
2022/05/06 11:17:22;;;;;;;;;;;;;;;17.96;100.00;98395.78;5081073;28;19987;-63
2022/05/06 11:19:48;;;;;;;;;;;;;;;18.10;100.00;98392.00;5080136;28;19921;-64
2022/05/06 11:22:15;;;;;;;;;;;;;;;18.20;100.00;98386.38;5076617;28;19931;-62
2022/05/06 11:24:41;;;;;;;;;;;;;;;18.12;100.00;98394.38;5077457;28;19921;-64
2022/05/06 11:27:19;;;;;;;;;;;;;;;18.18;100.00;98387.78;5080633;28;19924;-62
2022/05/06 11:29:49;;;;;;;;;;;;;;;18.17;100.00;98388.88;5063165;28;19925;-65
2022/05/06 11:32:16;;;;;;;;;;;;;;;18.05;100.00;98391.28;5077543;28;19925;-62
2022/05/06 11:34:47;;;;;;;;;;;;;;;18.20;100.00;98393.69;5077863;28;19987;-62
2022/05/06 11:37:20;;;;;;;;;;;;;;;18.25;100.00;98394.41;5069688;28;19925;-62
2022/05/06 11:39:46;;;;;;;;;;;;;;;18.47;100.00;98388.28;5077703;28;20459;-63
2022/05/06 11:42:23;;;;;;;;;;;;;;;18.48;100.00;98383.66;5096347;27;19923;-63
2022/05/06 11:47:41;;;;;;;;;;;;;;;18.61;100.00;98385.56;5080610;28;19930;-61
2022/05/06 11:50:08;;;;;;;;;;;;;;;18.56;100.00;98388.41;5077330;28;19959;-63
2022/05/06 11:52:35;;;;;;;;;;;;;;;18.69;100.00;98385.66;5077234;28;19995;-62
2022/05/06 11:55:01;;;;;;;;;;;;;;;18.92;100.00;98383.00;5079277;28;19924;-62
2022/05/06 11:57:30;;;;;;;;;;;;;;;18.87;100.00;98378.50;5080578;28;19999;-62
2022/05/06 11:59:56;;;;;;;;;;;;;;;18.76;100.00;98382.53;5078925;28;19992;-63
2022/05/06 12:02:22;;;;;;;;;;;;;;;18.73;100.00;98375.03;5076675;28;19935;-64
2022/05/06 12:04:49;;;;;;;;;;;;;;;18.77;100.00;98373.31;5077603;28;19992;-62
2022/05/06 12:07:15;;;;;;;;;;;;;;;18.79;100.00;98377.31;5080265;28;19931;-62
2022/05/06 12:09:42;;;;;;;;;;;;;;;18.91;100.00;98378.72;5080206;28;19927;-62
2022/05/06 12:12:09;;;;;;;;;;;;;;;18.94;100.00;98368.03;5093409;27;19963;-60
2022/05/06 12:14:37;;;;;;;;;;;;;;;18.82;100.00;98365.88;5101702;27;19963;-61
2022/05/06 12:17:04;;;;;;;;;;;;;;;18.85;100.00;98370.69;5079082;28;19959;-63
2022/05/06 12:19:34;;;;;;;;;;;;;;;18.88;100.00;98369.28;5080313;28;19920;-62
2022/05/06 12:22:03;;;;;;;;;;;;;;;18.93;100.00;98371.06;5078195;28;19988;-61
2022/05/06 12:24:37;;;;;;;;;;;;;;;18.81;100.00;98368.91;5076629;28;19992;-62
2022/05/06 12:27:04;;;;;;;;;;;;;;;18.61;100.00;98364.75;5079175;28;19924;-61
2022/05/06 12:29:36;;;;;;;;;;;;;;;18.79;100.00;98365.69;5079956;28;19984;-62
2022/05/06 12:32:04;;;;;;;;;;;;;;;18.80;100.00;98365.41;5077058;28;19956;-63
2022/05/06 12:34:31;;;;;;;;;;;;;;;18.68;100.00;98354.31;5076597;28;19928;-61
2022/05/06 12:37:08;;;;;;;;;;;;;;;18.75;100.00;98365.50;5078313;28;19924;-62
2022/05/06 12:39:39;;;;;;;;;;;;;;;18.80;100.00;98356.47;5079984;28;19925;-63
2022/05/06 12:42:12;;;;;;;;;;;;;;;18.69;100.00;98355.88;5091412;27;19928;-63
2022/05/06 12:44:39;;;;;;;;;;;;;;;18.70;100.00;98359.41;5099011;27;19942;-62
2022/05/06 12:47:13;;;;;;;;;;;;;;;18.79;100.00;98349.44;5079301;28;19928;-62
2022/05/06 12:49:39;;;;;;;;;;;;;;;18.69;100.00;98355.88;5079991;28;19945;-62
2022/05/06 12:52:07;;;;;;;;;;;;;;;18.67;100.00;98360.81;5077021;28;19925;-62
2022/05/06 12:54:34;;;;;;;;;;;;;;;18.70;100.00;98362.09;5076440;28;19924;-60
2022/05/06 12:57:01;;;;;;;;;;;;;;;18.59;100.00;98361.53;5078142;28;19925;-63
2022/05/06 12:59:27;;;;;;;;;;;;;;;18.68;100.00;98358.91;5079401;28;19992;-62
2022/05/06 13:01:53;;;;;;;;;;;;;;;18.63;100.00;98357.09;5077460;27;20015;-61
2022/05/06 13:04:21;;;;;;;;;;;;;;;18.57;100.00;98365.66;5073745;28;19925;-62
2022/05/06 13:06:48;;;;;;;;;;;;;;;18.64;100.00;98355.22;5073562;28;19992;-60
2022/05/06 13:09:14;;;;;;;;;;;;;;;18.71;100.00;98363.72;5077062;28;19959;-62
2022/05/06 13:11:41;;;;;;;;;;;;;;;18.62;100.00;98357.44;5076804;28;19952;-63
2022/05/06 13:14:08;;;;;;;;;;;;;;;18.71;100.00;98359.13;5116258;27;19936;-62
2022/05/06 13:16:35;;;;;;;;;;;;;;;18.67;100.00;98350.00;5073632;28;19925;-61
2022/05/06 13:19:02;;;;;;;;;;;;;;;18.52;100.00;98360.34;5076274;28;19925;-61
2022/05/06 13:21:30;;;;;;;;;;;;;;;18.33;100.00;98361.25;5078577;28;19991;-61
2022/05/06 13:23:56;;;;;;;;;;;;;;;18.42;100.00;98363.22;5077685;28;20011;-63
2022/05/06 13:26:22;;;;;;;;;;;;;;;18.33;100.00;98366.66;5075438;28;20001;-61
2022/05/06 13:28:48;;;;;;;;;;;;;;;18.12;100.00;98370.88;5076125;28;19980;-62